sensor_id;sensor_type;location;lat;lon;timestamp;P1;durP1;ratioP1;P2;durP2;ratioP2
8656;SDS011;4366;50.764;7.184;2024-02-21T00:02:07;5.13;;;3.00;;
8656;SDS011;4366;50.764;7.184;2024-02-21T00:07:09;6.70;;;3.20;;
8656;SDS011;4366;50.764;7.184;2024-02-21T00:12:11;3.90;;;3.13;;
8656;SDS011;4366;50.764;7.184;2024-02-21T00:17:17;2.57;;;2.37;;
8656;SDS011;4366;50.764;7.184;2024-02-21T00:22:19;6.43;;;3.30;;
8656;SDS011;4366;50.764;7.184;2024-02-21T00:27:21;3.83;;;2.70;;
8656;SDS011;4366;50.764;7.184;2024-02-21T00:32:23;3.57;;;3.10;;
8656;SDS011;4366;50.764;7.184;2024-02-21T00:37:25;3.50;;;2.80;;
8656;SDS011;4366;50.764;7.184;2024-02-21T00:42:26;6.53;;;3.13;;
8656;SDS011;4366;50.764;7.184;2024-02-21T00:47:28;3.83;;;3.07;;
8656;SDS011;4366;50.764;7.184;2024-02-21T00:52:30;5.87;;;3.20;;
8656;SDS011;4366;50.764;7.184;2024-02-21T00:57:32;3.30;;;3.00;;
8656;SDS011;4366;50.764;7.184;2024-02-21T01:02:34;4.87;;;3.27;;
8656;SDS011;4366;50.764;7.184;2024-02-21T01:07:36;3.67;;;3.30;;
8656;SDS011;4366;50.764;7.184;2024-02-21T01:12:38;3.00;;;2.67;;
8656;SDS011;4366;50.764;7.184;2024-02-21T01:17:40;5.57;;;2.97;;
8656;SDS011;4366;50.764;7.184;2024-02-21T01:22:42;5.00;;;3.07;;
8656;SDS011;4366;50.764;7.184;2024-02-21T01:27:44;4.03;;;2.90;;
8656;SDS011;4366;50.764;7.184;2024-02-21T01:32:46;3.57;;;2.97;;
8656;SDS011;4366;50.764;7.184;2024-02-21T01:37:48;7.70;;;3.50;;
8656;SDS011;4366;50.764;7.184;2024-02-21T01:42:50;4.63;;;3.20;;
8656;SDS011;4366;50.764;7.184;2024-02-21T01:47:55;5.43;;;3.37;;
8656;SDS011;4366;50.764;7.184;2024-02-21T01:52:57;4.33;;;3.10;;
8656;SDS011;4366;50.764;7.184;2024-02-21T01:57:59;5.70;;;3.43;;
8656;SDS011;4366;50.764;7.184;2024-02-21T02:03:01;4.80;;;3.23;;
8656;SDS011;4366;50.764;7.184;2024-02-21T02:08:02;3.47;;;2.73;;
8656;SDS011;4366;50.764;7.184;2024-02-21T02:13:06;4.83;;;2.90;;
8656;SDS011;4366;50.764;7.184;2024-02-21T02:18:09;6.40;;;3.10;;
8656;SDS011;4366;50.764;7.184;2024-02-21T02:28:35;5.10;;;3.07;;
8656;SDS011;4366;50.764;7.184;2024-02-21T02:33:37;5.03;;;2.93;;
8656;SDS011;4366;50.764;7.184;2024-02-21T02:38:39;7.83;;;3.33;;
8656;SDS011;4366;50.764;7.184;2024-02-21T02:43:41;5.13;;;2.93;;
8656;SDS011;4366;50.764;7.184;2024-02-21T02:48:43;6.10;;;3.10;;
8656;SDS011;4366;50.764;7.184;2024-02-21T02:53:46;3.57;;;2.70;;
8656;SDS011;4366;50.764;7.184;2024-02-21T02:58:48;4.07;;;2.83;;
8656;SDS011;4366;50.764;7.184;2024-02-21T03:03:49;4.77;;;3.20;;
8656;SDS011;4366;50.764;7.184;2024-02-21T03:08:51;4.53;;;2.87;;
8656;SDS011;4366;50.764;7.184;2024-02-21T03:13:56;7.70;;;2.67;;
8656;SDS011;4366;50.764;7.184;2024-02-21T03:19:00;5.97;;;2.73;;
8656;SDS011;4366;50.764;7.184;2024-02-21T03:24:02;4.13;;;2.67;;
8656;SDS011;4366;50.764;7.184;2024-02-21T03:29:05;6.30;;;2.83;;
8656;SDS011;4366;50.764;7.184;2024-02-21T03:34:06;4.17;;;2.77;;
8656;SDS011;4366;50.764;7.184;2024-02-21T03:39:08;4.43;;;2.70;;
8656;SDS011;4366;50.764;7.184;2024-02-21T03:44:10;4.73;;;2.87;;
8656;SDS011;4366;50.764;7.184;2024-02-21T03:49:12;4.40;;;3.17;;
8656;SDS011;4366;50.764;7.184;2024-02-21T03:54:15;5.17;;;2.90;;
8656;SDS011;4366;50.764;7.184;2024-02-21T03:59:16;6.37;;;3.10;;
8656;SDS011;4366;50.764;7.184;2024-02-21T04:04:18;3.73;;;3.40;;
8656;SDS011;4366;50.764;7.184;2024-02-21T04:09:20;6.70;;;3.00;;
8656;SDS011;4366;50.764;7.184;2024-02-21T04:14:22;5.40;;;2.93;;
8656;SDS011;4366;50.764;7.184;2024-02-21T04:19:23;4.30;;;2.73;;
8656;SDS011;4366;50.764;7.184;2024-02-21T04:24:25;3.27;;;2.40;;
8656;SDS011;4366;50.764;7.184;2024-02-21T04:29:27;6.03;;;2.60;;
8656;SDS011;4366;50.764;7.184;2024-02-21T04:34:30;4.93;;;2.90;;
8656;SDS011;4366;50.764;7.184;2024-02-21T04:39:33;3.60;;;2.30;;
8656;SDS011;4366;50.764;7.184;2024-02-21T04:44:35;4.10;;;2.50;;
8656;SDS011;4366;50.764;7.184;2024-02-21T04:49:37;5.43;;;2.50;;
8656;SDS011;4366;50.764;7.184;2024-02-21T04:54:40;3.60;;;2.60;;
8656;SDS011;4366;50.764;7.184;2024-02-21T04:59:42;6.23;;;3.07;;
8656;SDS011;4366;50.764;7.184;2024-02-21T05:04:46;3.83;;;2.40;;
8656;SDS011;4366;50.764;7.184;2024-02-21T05:09:50;4.90;;;2.20;;
8656;SDS011;4366;50.764;7.184;2024-02-21T05:14:52;4.90;;;2.47;;
8656;SDS011;4366;50.764;7.184;2024-02-21T05:19:54;4.17;;;2.40;;
8656;SDS011;4366;50.764;7.184;2024-02-21T05:24:56;4.93;;;2.70;;
8656;SDS011;4366;50.764;7.184;2024-02-21T05:29:58;2.53;;;2.20;;
8656;SDS011;4366;50.764;7.184;2024-02-21T05:35:00;5.27;;;2.37;;
8656;SDS011;4366;50.764;7.184;2024-02-21T05:40:02;4.03;;;2.40;;
8656;SDS011;4366;50.764;7.184;2024-02-21T05:45:05;2.50;;;2.30;;
8656;SDS011;4366;50.764;7.184;2024-02-21T05:50:06;2.60;;;2.40;;
8656;SDS011;4366;50.764;7.184;2024-02-21T05:55:08;2.33;;;2.13;;
8656;SDS011;4366;50.764;7.184;2024-02-21T06:00:10;4.47;;;2.40;;
8656;SDS011;4366;50.764;7.184;2024-02-21T06:05:12;2.60;;;2.40;;
8656;SDS011;4366;50.764;7.184;2024-02-21T06:10:14;3.75;;;2.53;;
8656;SDS011;4366;50.764;7.184;2024-02-21T06:15:16;3.57;;;2.30;;
8656;SDS011;4366;50.764;7.184;2024-02-21T06:20:18;4.33;;;2.30;;
8656;SDS011;4366;50.764;7.184;2024-02-21T06:25:20;4.17;;;2.97;;
8656;SDS011;4366;50.764;7.184;2024-02-21T06:30:21;2.57;;;2.33;;
8656;SDS011;4366;50.764;7.184;2024-02-21T06:35:23;3.00;;;2.60;;
8656;SDS011;4366;50.764;7.184;2024-02-21T06:40:27;5.37;;;2.30;;
8656;SDS011;4366;50.764;7.184;2024-02-21T06:45:29;2.33;;;2.13;;
8656;SDS011;4366;50.764;7.184;2024-02-21T06:50:31;4.17;;;2.50;;
8656;SDS011;4366;50.764;7.184;2024-02-21T06:55:33;3.03;;;2.10;;
8656;SDS011;4366;50.764;7.184;2024-02-21T07:00:34;4.73;;;2.40;;
8656;SDS011;4366;50.764;7.184;2024-02-21T07:05:36;2.80;;;2.27;;
8656;SDS011;4366;50.764;7.184;2024-02-21T07:10:38;2.43;;;2.23;;
8656;SDS011;4366;50.764;7.184;2024-02-21T07:15:40;2.73;;;2.47;;
8656;SDS011;4366;50.764;7.184;2024-02-21T07:20:42;4.87;;;2.43;;
8656;SDS011;4366;50.764;7.184;2024-02-21T07:25:44;4.67;;;2.20;;
8656;SDS011;4366;50.764;7.184;2024-02-21T07:30:45;4.70;;;2.77;;
8656;SDS011;4366;50.764;7.184;2024-02-21T07:35:47;6.93;;;2.50;;
8656;SDS011;4366;50.764;7.184;2024-02-21T07:40:49;2.50;;;2.30;;
8656;SDS011;4366;50.764;7.184;2024-02-21T07:45:51;3.47;;;2.83;;
8656;SDS011;4366;50.764;7.184;2024-02-21T07:50:52;3.03;;;2.27;;
8656;SDS011;4366;50.764;7.184;2024-02-21T07:55:54;3.87;;;3.00;;
8656;SDS011;4366;50.764;7.184;2024-02-21T08:00:56;3.17;;;2.90;;
8656;SDS011;4366;50.764;7.184;2024-02-21T08:05:57;4.47;;;3.13;;
8656;SDS011;4366;50.764;7.184;2024-02-21T08:10:59;2.93;;;2.60;;
8656;SDS011;4366;50.764;7.184;2024-02-21T08:16:01;4.33;;;2.70;;
8656;SDS011;4366;50.764;7.184;2024-02-21T08:21:04;3.43;;;2.53;;
8656;SDS011;4366;50.764;7.184;2024-02-21T08:26:06;4.00;;;2.43;;
8656;SDS011;4366;50.764;7.184;2024-02-21T08:31:08;3.53;;;2.70;;
8656;SDS011;4366;50.764;7.184;2024-02-21T08:36:16;3.70;;;2.60;;
8656;SDS011;4366;50.764;7.184;2024-02-21T08:41:19;3.83;;;2.50;;
8656;SDS011;4366;50.764;7.184;2024-02-21T08:46:20;3.90;;;2.60;;
8656;SDS011;4366;50.764;7.184;2024-02-21T08:51:22;4.10;;;2.80;;
8656;SDS011;4366;50.764;7.184;2024-02-21T08:56:24;3.60;;;2.43;;
8656;SDS011;4366;50.764;7.184;2024-02-21T09:01:26;4.00;;;2.37;;
8656;SDS011;4366;50.764;7.184;2024-02-21T09:06:28;4.70;;;2.77;;
8656;SDS011;4366;50.764;7.184;2024-02-21T09:11:31;3.17;;;2.53;;
8656;SDS011;4366;50.764;7.184;2024-02-21T09:16:32;2.50;;;2.20;;
8656;SDS011;4366;50.764;7.184;2024-02-21T09:21:34;4.03;;;2.57;;
8656;SDS011;4366;50.764;7.184;2024-02-21T09:26:37;3.50;;;2.20;;
8656;SDS011;4366;50.764;7.184;2024-02-21T09:31:38;3.87;;;2.27;;
8656;SDS011;4366;50.764;7.184;2024-02-21T09:36:40;3.23;;;2.40;;
8656;SDS011;4366;50.764;7.184;2024-02-21T09:41:44;2.30;;;2.20;;
8656;SDS011;4366;50.764;7.184;2024-02-21T09:51:51;7.33;;;2.37;;
8656;SDS011;4366;50.764;7.184;2024-02-21T09:56:55;5.17;;;2.60;;
8656;SDS011;4366;50.764;7.184;2024-02-21T10:01:57;3.83;;;2.20;;
8656;SDS011;4366;50.764;7.184;2024-02-21T10:07:02;2.20;;;2.03;;
8656;SDS011;4366;50.764;7.184;2024-02-21T10:12:07;3.40;;;2.00;;
8656;SDS011;4366;50.764;7.184;2024-02-21T10:17:17;4.43;;;2.30;;
8656;SDS011;4366;50.764;7.184;2024-02-21T10:22:20;3.30;;;2.10;;
8656;SDS011;4366;50.764;7.184;2024-02-21T10:27:23;2.90;;;2.30;;
8656;SDS011;4366;50.764;7.184;2024-02-21T10:32:24;3.77;;;2.27;;
8656;SDS011;4366;50.764;7.184;2024-02-21T10:37:28;6.80;;;2.43;;
8656;SDS011;4366;50.764;7.184;2024-02-21T10:42:29;3.30;;;2.07;;
8656;SDS011;4366;50.764;7.184;2024-02-21T10:47:32;3.13;;;1.90;;
8656;SDS011;4366;50.764;7.184;2024-02-21T10:57:49;4.93;;;2.00;;
8656;SDS011;4366;50.764;7.184;2024-02-21T11:02:51;3.47;;;1.93;;
8656;SDS011;4366;50.764;7.184;2024-02-21T11:07:53;3.07;;;2.07;;
8656;SDS011;4366;50.764;7.184;2024-02-21T11:13:07;2.93;;;2.33;;
8656;SDS011;4366;50.764;7.184;2024-02-21T11:18:09;3.50;;;1.90;;
8656;SDS011;4366;50.764;7.184;2024-02-21T11:23:11;2.93;;;2.00;;
8656;SDS011;4366;50.764;7.184;2024-02-21T11:28:13;6.30;;;2.57;;
8656;SDS011;4366;50.764;7.184;2024-02-21T11:33:15;2.87;;;1.87;;
8656;SDS011;4366;50.764;7.184;2024-02-21T11:38:18;2.87;;;1.70;;
8656;SDS011;4366;50.764;7.184;2024-02-21T11:43:20;2.50;;;1.80;;
8656;SDS011;4366;50.764;7.184;2024-02-21T11:48:22;3.67;;;1.80;;
8656;SDS011;4366;50.764;7.184;2024-02-21T11:53:23;3.33;;;1.90;;
8656;SDS011;4366;50.764;7.184;2024-02-21T11:58:25;2.50;;;1.70;;
8656;SDS011;4366;50.764;7.184;2024-02-21T12:03:28;3.13;;;2.33;;
8656;SDS011;4366;50.764;7.184;2024-02-21T12:08:45;4.70;;;2.00;;
8656;SDS011;4366;50.764;7.184;2024-02-21T12:13:47;2.67;;;1.60;;
8656;SDS011;4366;50.764;7.184;2024-02-21T12:18:52;2.57;;;1.90;;
8656;SDS011;4366;50.764;7.184;2024-02-21T12:23:54;4.20;;;1.80;;
8656;SDS011;4366;50.764;7.184;2024-02-21T12:28:57;3.27;;;2.00;;
8656;SDS011;4366;50.764;7.184;2024-02-21T12:33:59;2.93;;;1.90;;
8656;SDS011;4366;50.764;7.184;2024-02-21T12:39:01;3.00;;;2.20;;
8656;SDS011;4366;50.764;7.184;2024-02-21T12:44:05;3.53;;;1.87;;
8656;SDS011;4366;50.764;7.184;2024-02-21T12:49:10;5.33;;;2.10;;
8656;SDS011;4366;50.764;7.184;2024-02-21T12:54:11;3.77;;;2.37;;
8656;SDS011;4366;50.764;7.184;2024-02-21T12:59:13;3.80;;;2.00;;
8656;SDS011;4366;50.764;7.184;2024-02-21T13:04:15;2.87;;;2.00;;
8656;SDS011;4366;50.764;7.184;2024-02-21T13:09:17;3.30;;;1.97;;
8656;SDS011;4366;50.764;7.184;2024-02-21T13:14:19;2.67;;;2.30;;
8656;SDS011;4366;50.764;7.184;2024-02-21T13:19:21;3.17;;;2.37;;
8656;SDS011;4366;50.764;7.184;2024-02-21T13:24:23;1.80;;;1.70;;
8656;SDS011;4366;50.764;7.184;2024-02-21T13:29:25;2.17;;;2.00;;
8656;SDS011;4366;50.764;7.184;2024-02-21T13:34:26;3.87;;;2.07;;
8656;SDS011;4366;50.764;7.184;2024-02-21T13:39:28;4.47;;;2.23;;
8656;SDS011;4366;50.764;7.184;2024-02-21T13:44:30;2.03;;;1.80;;
8656;SDS011;4366;50.764;7.184;2024-02-21T13:49:32;2.50;;;1.87;;
8656;SDS011;4366;50.764;7.184;2024-02-21T13:54:34;4.53;;;2.07;;
8656;SDS011;4366;50.764;7.184;2024-02-21T13:59:35;3.23;;;1.83;;
8656;SDS011;4366;50.764;7.184;2024-02-21T14:04:37;4.40;;;1.80;;
8656;SDS011;4366;50.764;7.184;2024-02-21T14:09:39;2.83;;;2.23;;
8656;SDS011;4366;50.764;7.184;2024-02-21T14:14:40;1.93;;;1.60;;
8656;SDS011;4366;50.764;7.184;2024-02-21T14:19:43;1.80;;;1.57;;
8656;SDS011;4366;50.764;7.184;2024-02-21T14:24:45;2.40;;;1.67;;
8656;SDS011;4366;50.764;7.184;2024-02-21T14:29:46;1.90;;;1.70;;
8656;SDS011;4366;50.764;7.184;2024-02-21T14:34:48;2.80;;;1.83;;
8656;SDS011;4366;50.764;7.184;2024-02-21T14:39:51;4.87;;;1.93;;
8656;SDS011;4366;50.764;7.184;2024-02-21T14:44:53;3.30;;;2.10;;
8656;SDS011;4366;50.764;7.184;2024-02-21T14:49:55;3.53;;;2.03;;
8656;SDS011;4366;50.764;7.184;2024-02-21T14:54:56;2.43;;;1.80;;
8656;SDS011;4366;50.764;7.184;2024-02-21T14:59:58;2.17;;;1.90;;
8656;SDS011;4366;50.764;7.184;2024-02-21T15:05:01;3.60;;;1.93;;
8656;SDS011;4366;50.764;7.184;2024-02-21T15:10:05;2.30;;;2.10;;
8656;SDS011;4366;50.764;7.184;2024-02-21T15:15:07;2.90;;;2.10;;
8656;SDS011;4366;50.764;7.184;2024-02-21T15:20:10;2.00;;;1.80;;
8656;SDS011;4366;50.764;7.184;2024-02-21T15:25:12;4.43;;;2.13;;
8656;SDS011;4366;50.764;7.184;2024-02-21T15:30:18;2.90;;;2.00;;
8656;SDS011;4366;50.764;7.184;2024-02-21T15:35:20;2.30;;;1.80;;
8656;SDS011;4366;50.764;7.184;2024-02-21T15:40:22;3.83;;;1.97;;
8656;SDS011;4366;50.764;7.184;2024-02-21T15:45:24;1.90;;;1.70;;
8656;SDS011;4366;50.764;7.184;2024-02-21T15:50:26;2.70;;;1.80;;
8656;SDS011;4366;50.764;7.184;2024-02-21T15:55:31;2.07;;;1.80;;
8656;SDS011;4366;50.764;7.184;2024-02-21T16:00:32;3.97;;;1.87;;
8656;SDS011;4366;50.764;7.184;2024-02-21T16:05:34;2.73;;;2.10;;
8656;SDS011;4366;50.764;7.184;2024-02-21T16:10:37;2.23;;;1.60;;
8656;SDS011;4366;50.764;7.184;2024-02-21T16:15:39;1.50;;;1.40;;
8656;SDS011;4366;50.764;7.184;2024-02-21T16:20:41;2.30;;;1.60;;
8656;SDS011;4366;50.764;7.184;2024-02-21T16:25:43;2.47;;;1.70;;
8656;SDS011;4366;50.764;7.184;2024-02-21T16:30:45;1.70;;;1.60;;
8656;SDS011;4366;50.764;7.184;2024-02-21T16:35:47;3.60;;;1.70;;
8656;SDS011;4366;50.764;7.184;2024-02-21T16:40:49;2.00;;;1.63;;
8656;SDS011;4366;50.764;7.184;2024-02-21T16:45:51;1.47;;;1.47;;
8656;SDS011;4366;50.764;7.184;2024-02-21T16:50:53;5.80;;;1.83;;
8656;SDS011;4366;50.764;7.184;2024-02-21T16:56:01;1.77;;;1.50;;
8656;SDS011;4366;50.764;7.184;2024-02-21T17:01:05;2.13;;;1.87;;
8656;SDS011;4366;50.764;7.184;2024-02-21T17:06:13;2.07;;;1.70;;
8656;SDS011;4366;50.764;7.184;2024-02-21T17:11:18;1.60;;;1.50;;
8656;SDS011;4366;50.764;7.184;2024-02-21T17:16:20;2.40;;;1.60;;
8656;SDS011;4366;50.764;7.184;2024-02-21T17:21:22;2.27;;;1.73;;
8656;SDS011;4366;50.764;7.184;2024-02-21T17:26:24;1.80;;;1.70;;
8656;SDS011;4366;50.764;7.184;2024-02-21T17:31:27;1.67;;;1.57;;
8656;SDS011;4366;50.764;7.184;2024-02-21T17:36:29;4.43;;;1.63;;
8656;SDS011;4366;50.764;7.184;2024-02-21T17:41:31;2.43;;;1.90;;
8656;SDS011;4366;50.764;7.184;2024-02-21T17:46:32;2.50;;;1.80;;
8656;SDS011;4366;50.764;7.184;2024-02-21T17:51:34;1.97;;;1.80;;
8656;SDS011;4366;50.764;7.184;2024-02-21T17:56:36;2.77;;;2.10;;
8656;SDS011;4366;50.764;7.184;2024-02-21T18:01:37;4.40;;;2.33;;
8656;SDS011;4366;50.764;7.184;2024-02-21T18:06:39;2.43;;;1.93;;
8656;SDS011;4366;50.764;7.184;2024-02-21T18:11:41;3.73;;;2.07;;
8656;SDS011;4366;50.764;7.184;2024-02-21T18:16:43;2.13;;;1.70;;
8656;SDS011;4366;50.764;7.184;2024-02-21T18:21:45;2.07;;;1.87;;
8656;SDS011;4366;50.764;7.184;2024-02-21T18:26:49;5.97;;;1.90;;
8656;SDS011;4366;50.764;7.184;2024-02-21T18:31:51;2.20;;;2.00;;
8656;SDS011;4366;50.764;7.184;2024-02-21T18:36:53;5.07;;;2.00;;
8656;SDS011;4366;50.764;7.184;2024-02-21T18:41:55;3.90;;;2.30;;
8656;SDS011;4366;50.764;7.184;2024-02-21T18:46:58;5.27;;;2.10;;
8656;SDS011;4366;50.764;7.184;2024-02-21T18:51:59;2.33;;;2.10;;
8656;SDS011;4366;50.764;7.184;2024-02-21T18:57:01;2.20;;;2.00;;
8656;SDS011;4366;50.764;7.184;2024-02-21T19:02:03;4.87;;;2.20;;
8656;SDS011;4366;50.764;7.184;2024-02-21T19:07:05;3.43;;;2.03;;
8656;SDS011;4366;50.764;7.184;2024-02-21T19:12:07;3.23;;;2.30;;
8656;SDS011;4366;50.764;7.184;2024-02-21T19:17:12;2.67;;;2.30;;
8656;SDS011;4366;50.764;7.184;2024-02-21T19:22:14;4.50;;;2.50;;
8656;SDS011;4366;50.764;7.184;2024-02-21T19:27:16;2.83;;;2.20;;
8656;SDS011;4366;50.764;7.184;2024-02-21T19:32:18;2.47;;;2.20;;
8656;SDS011;4366;50.764;7.184;2024-02-21T19:37:23;4.97;;;2.67;;
8656;SDS011;4366;50.764;7.184;2024-02-21T19:42:24;4.27;;;2.37;;
8656;SDS011;4366;50.764;7.184;2024-02-21T19:47:27;3.20;;;2.80;;
8656;SDS011;4366;50.764;7.184;2024-02-21T19:52:29;4.43;;;2.77;;
8656;SDS011;4366;50.764;7.184;2024-02-21T19:57:30;2.63;;;2.43;;
8656;SDS011;4366;50.764;7.184;2024-02-21T20:02:32;5.10;;;2.60;;
8656;SDS011;4366;50.764;7.184;2024-02-21T20:07:34;2.50;;;2.33;;
8656;SDS011;4366;50.764;7.184;2024-02-21T20:12:36;2.90;;;2.63;;
8656;SDS011;4366;50.764;7.184;2024-02-21T20:17:42;2.33;;;2.13;;
8656;SDS011;4366;50.764;7.184;2024-02-21T20:22:48;2.90;;;2.33;;
8656;SDS011;4366;50.764;7.184;2024-02-21T20:27:50;2.37;;;2.17;;
8656;SDS011;4366;50.764;7.184;2024-02-21T20:32:52;2.33;;;2.13;;
8656;SDS011;4366;50.764;7.184;2024-02-21T20:37:55;2.50;;;2.40;;
8656;SDS011;4366;50.764;7.184;2024-02-21T20:42:57;2.83;;;2.30;;
8656;SDS011;4366;50.764;7.184;2024-02-21T20:48:02;2.40;;;2.20;;
8656;SDS011;4366;50.764;7.184;2024-02-21T20:53:06;3.43;;;2.30;;
8656;SDS011;4366;50.764;7.184;2024-02-21T20:58:08;2.43;;;2.20;;
8656;SDS011;4366;50.764;7.184;2024-02-21T21:03:10;2.80;;;2.10;;
8656;SDS011;4366;50.764;7.184;2024-02-21T21:08:12;3.40;;;2.20;;
8656;SDS011;4366;50.764;7.184;2024-02-21T21:13:14;2.40;;;2.10;;
8656;SDS011;4366;50.764;7.184;2024-02-21T21:18:31;2.30;;;1.90;;
8656;SDS011;4366;50.764;7.184;2024-02-21T21:23:34;3.00;;;2.10;;
8656;SDS011;4366;50.764;7.184;2024-02-21T21:28:35;2.03;;;1.83;;
8656;SDS011;4366;50.764;7.184;2024-02-21T21:33:37;2.00;;;1.80;;
8656;SDS011;4366;50.764;7.184;2024-02-21T21:38:39;1.80;;;1.70;;
8656;SDS011;4366;50.764;7.184;2024-02-21T21:43:41;2.13;;;2.03;;
8656;SDS011;4366;50.764;7.184;2024-02-21T21:48:43;1.90;;;1.80;;
8656;SDS011;4366;50.764;7.184;2024-02-21T21:53:45;2.00;;;1.90;;
8656;SDS011;4366;50.764;7.184;2024-02-21T21:58:47;2.10;;;2.00;;
8656;SDS011;4366;50.764;7.184;2024-02-21T22:03:50;1.87;;;1.77;;
8656;SDS011;4366;50.764;7.184;2024-02-21T22:08:52;1.97;;;1.87;;
8656;SDS011;4366;50.764;7.184;2024-02-21T22:13:53;2.90;;;1.80;;
8656;SDS011;4366;50.764;7.184;2024-02-21T22:18:55;1.80;;;1.70;;
8656;SDS011;4366;50.764;7.184;2024-02-21T22:23:57;1.90;;;1.80;;
8656;SDS011;4366;50.764;7.184;2024-02-21T22:28:59;1.70;;;1.60;;
8656;SDS011;4366;50.764;7.184;2024-02-21T22:34:01;2.63;;;1.90;;
8656;SDS011;4366;50.764;7.184;2024-02-21T22:39:03;1.90;;;1.80;;
8656;SDS011;4366;50.764;7.184;2024-02-21T22:44:06;2.87;;;1.90;;
8656;SDS011;4366;50.764;7.184;2024-02-21T22:49:08;2.00;;;1.90;;
8656;SDS011;4366;50.764;7.184;2024-02-21T22:54:10;1.87;;;1.77;;
8656;SDS011;4366;50.764;7.184;2024-02-21T22:59:12;1.93;;;1.83;;
8656;SDS011;4366;50.764;7.184;2024-02-21T23:04:14;1.90;;;1.80;;
8656;SDS011;4366;50.764;7.184;2024-02-21T23:09:15;1.70;;;1.60;;
8656;SDS011;4366;50.764;7.184;2024-02-21T23:14:18;1.50;;;1.50;;
8656;SDS011;4366;50.764;7.184;2024-02-21T23:19:20;1.40;;;1.40;;
8656;SDS011;4366;50.764;7.184;2024-02-21T23:24:22;1.20;;;1.20;;
8656;SDS011;4366;50.764;7.184;2024-02-21T23:29:24;1.23;;;1.23;;
8656;SDS011;4366;50.764;7.184;2024-02-21T23:34:26;1.30;;;1.30;;
8656;SDS011;4366;50.764;7.184;2024-02-21T23:39:28;1.10;;;1.10;;
8656;SDS011;4366;50.764;7.184;2024-02-21T23:44:31;1.10;;;1.10;;
8656;SDS011;4366;50.764;7.184;2024-02-21T23:49:33;1.13;;;1.13;;
8656;SDS011;4366;50.764;7.184;2024-02-21T23:54:35;1.00;;;1.00;;
8656;SDS011;4366;50.764;7.184;2024-02-21T23:59:37;1.20;;;1.20;;
